createdAt,value
2023-01-21T00:00:45.655Z,5.57
2023-01-21T00:03:10.978Z,7.20
2023-01-21T00:05:38.511Z,6.10
2023-01-21T00:08:06.024Z,6.17
2023-01-21T00:10:33.562Z,5.83
2023-01-21T00:13:01.110Z,4.63
2023-01-21T00:15:28.664Z,5.27
2023-01-21T00:17:56.168Z,5.50
2023-01-21T00:20:23.990Z,6.68
2023-01-21T00:22:51.495Z,5.90
2023-01-21T00:25:19.174Z,6.10
2023-01-21T00:27:46.693Z,5.37
2023-01-21T00:30:14.306Z,6.78
2023-01-21T00:32:41.731Z,5.40
2023-01-21T00:35:09.558Z,7.12
2023-01-21T00:37:37.061Z,6.23
2023-01-21T00:40:04.595Z,6.03
2023-01-21T00:42:32.161Z,6.00
2023-01-21T00:44:59.689Z,6.17
2023-01-21T00:47:27.207Z,5.90
2023-01-21T00:49:54.770Z,5.50
2023-01-21T00:52:22.269Z,5.37
2023-01-21T00:54:49.791Z,5.83
2023-01-21T00:57:17.370Z,5.63
2023-01-21T00:59:44.882Z,7.83
2023-01-21T01:02:12.419Z,8.05
2023-01-21T01:04:39.969Z,7.20
2023-01-21T01:07:07.476Z,6.73
2023-01-21T01:09:35.000Z,6.30
2023-01-21T01:12:02.565Z,6.20
2023-01-21T01:14:30.080Z,5.53
2023-01-21T01:16:57.609Z,7.97
2023-01-21T01:19:25.151Z,6.93
2023-01-21T01:21:52.662Z,5.97
2023-01-21T01:24:20.182Z,6.37
2023-01-21T01:26:47.735Z,6.00
2023-01-21T01:29:15.247Z,5.93
2023-01-21T01:31:42.845Z,5.97
2023-01-21T01:34:10.335Z,8.27
2023-01-21T01:36:37.839Z,6.87
2023-01-21T01:39:05.346Z,5.97
2023-01-21T01:41:32.874Z,6.50
2023-01-21T01:44:00.383Z,6.20
2023-01-21T01:46:30.609Z,6.53
2023-01-21T01:49:06.842Z,6.10
2023-01-21T01:51:40.004Z,5.80
2023-01-21T01:54:07.497Z,6.07
2023-01-21T01:56:35.042Z,6.10
2023-01-21T01:59:02.575Z,5.83
2023-01-21T02:01:30.140Z,6.30
2023-01-21T02:03:57.657Z,6.17
2023-01-21T02:06:25.179Z,5.93
2023-01-21T02:08:52.716Z,6.17
2023-01-21T02:11:20.286Z,5.63
2023-01-21T02:13:47.790Z,5.80
2023-01-21T02:16:23.763Z,5.73
2023-01-21T02:19:00.799Z,5.97
2023-01-21T02:21:30.948Z,5.50
2023-01-21T02:24:22.112Z,5.83
2023-01-21T02:27:16.751Z,6.03
2023-01-21T02:29:46.935Z,6.17
2023-01-21T02:32:51.111Z,6.13
2023-01-21T02:35:24.429Z,6.60
2023-01-21T02:38:09.968Z,6.33
2023-01-21T02:40:40.459Z,6.77
2023-01-21T02:43:16.777Z,6.23
2023-01-21T02:45:47.226Z,6.40
2023-01-21T02:48:14.761Z,8.23
2023-01-21T02:50:42.285Z,8.60
2023-01-21T02:53:24.625Z,7.27
2023-01-21T02:55:52.151Z,6.67
2023-01-21T02:58:19.656Z,7.10
2023-01-21T03:00:56.016Z,6.97
2023-01-21T03:03:23.519Z,6.20
2023-01-21T03:06:05.655Z,5.97
2023-01-21T03:08:36.067Z,5.27
2023-01-21T03:11:15.114Z,5.87
2023-01-21T03:14:00.819Z,5.13
2023-01-21T03:16:46.363Z,6.30
2023-01-21T03:19:13.864Z,6.43
2023-01-21T03:21:41.384Z,5.87
2023-01-21T03:24:08.932Z,6.55
2023-01-21T03:26:36.446Z,4.97
2023-01-21T03:29:03.949Z,5.73
2023-01-21T03:31:31.534Z,4.47
2023-01-21T03:34:01.916Z,4.50
2023-01-21T03:36:35.202Z,4.57
2023-01-21T03:39:02.718Z,4.83
2023-01-21T03:41:30.241Z,5.60
2023-01-21T03:43:57.868Z,5.10
2023-01-21T03:46:37.097Z,4.73
2023-01-21T03:49:10.583Z,4.77
2023-01-21T03:51:38.103Z,4.60
2023-01-21T03:54:05.665Z,5.40
2023-01-21T03:56:33.176Z,6.95
2023-01-21T03:59:00.686Z,5.53
2023-01-21T04:01:28.207Z,6.97
2023-01-21T04:03:55.760Z,5.60
2023-01-21T04:06:23.309Z,6.90
2023-01-21T04:08:50.815Z,5.73
2023-01-21T04:11:18.367Z,5.60
2023-01-21T04:13:45.874Z,4.67
2023-01-21T04:16:13.450Z,5.10
2023-01-21T04:18:41.190Z,4.77
2023-01-21T04:21:08.706Z,5.07
2023-01-21T04:23:36.230Z,4.80
2023-01-21T04:26:03.766Z,4.47
2023-01-21T04:28:31.275Z,4.53
2023-01-21T04:30:58.805Z,4.60
2023-01-21T04:33:26.340Z,3.87
2023-01-21T04:35:53.880Z,4.33
2023-01-21T04:38:21.401Z,4.50
2023-01-21T04:40:49.207Z,4.03
2023-01-21T04:43:16.722Z,3.60
2023-01-21T04:45:44.292Z,3.87
2023-01-21T04:48:11.821Z,4.60
2023-01-21T04:50:39.336Z,3.63
2023-01-21T04:53:06.853Z,3.30
2023-01-21T04:55:34.395Z,4.20
2023-01-21T04:58:01.923Z,3.70
2023-01-21T05:00:29.446Z,3.83
2023-01-21T05:02:57.019Z,4.17
2023-01-21T05:05:24.534Z,3.63
2023-01-21T05:07:55.007Z,3.27
2023-01-21T05:10:22.568Z,3.67
2023-01-21T05:12:50.082Z,5.20
2023-01-21T05:15:17.616Z,5.40
2023-01-21T05:17:45.138Z,4.77
2023-01-21T05:20:12.655Z,4.90
2023-01-21T05:22:40.167Z,5.90
2023-01-21T05:25:07.713Z,5.33
2023-01-21T05:27:35.227Z,5.80
2023-01-21T05:30:02.743Z,6.80
2023-01-21T05:32:30.319Z,5.70
2023-01-21T05:34:57.835Z,5.70
2023-01-21T05:37:25.372Z,5.67
2023-01-21T05:39:52.919Z,7.15
2023-01-21T05:42:20.442Z,6.33
2023-01-21T05:44:47.962Z,5.33
2023-01-21T05:47:15.526Z,5.60
2023-01-21T05:49:43.037Z,5.77
2023-01-21T05:52:10.558Z,5.93
2023-01-21T05:54:42.030Z,6.10
2023-01-21T05:57:05.617Z,6.00
2023-01-21T05:59:33.121Z,5.27
2023-01-21T06:02:00.672Z,6.87
2023-01-21T06:04:28.188Z,6.40
2023-01-21T06:06:55.712Z,6.60
2023-01-21T06:09:23.271Z,6.90
2023-01-21T06:11:50.790Z,7.03
2023-01-21T06:14:18.326Z,6.83
2023-01-21T06:16:46.754Z,6.67
2023-01-21T06:19:14.299Z,7.27
2023-01-21T06:21:41.815Z,6.90
2023-01-21T06:24:09.374Z,6.93
2023-01-21T06:26:36.894Z,7.10
2023-01-21T06:29:04.424Z,7.47
2023-01-21T06:31:32.074Z,7.00
2023-01-21T06:33:59.484Z,7.33
2023-01-21T06:36:27.005Z,8.10
2023-01-21T06:38:54.587Z,7.70
2023-01-21T06:41:22.136Z,7.57
2023-01-21T06:43:49.648Z,6.87
2023-01-21T06:46:17.272Z,7.67
2023-01-21T06:48:44.739Z,7.63
2023-01-21T06:51:12.301Z,7.57
2023-01-21T06:53:39.851Z,7.20
2023-01-21T06:56:07.370Z,9.47
2023-01-21T06:58:34.894Z,7.93
2023-01-21T07:01:02.439Z,7.63
2023-01-21T07:03:29.983Z,7.83
2023-01-21T07:05:57.519Z,7.40
2023-01-21T07:08:25.370Z,7.80
2023-01-21T07:10:52.922Z,8.20
2023-01-21T07:13:20.432Z,7.50
2023-01-21T07:15:48.245Z,7.60
2023-01-21T07:18:15.753Z,7.10
2023-01-21T07:20:43.404Z,9.30
2023-01-21T07:23:10.963Z,8.33
2023-01-21T07:25:38.502Z,9.67
2023-01-21T07:28:06.036Z,7.73
2023-01-21T07:30:33.616Z,6.90
2023-01-21T07:33:06.851Z,7.67
2023-01-21T07:35:34.407Z,7.27
2023-01-21T07:38:02.009Z,7.63
2023-01-21T07:40:29.525Z,7.60
2023-01-21T07:42:57.047Z,9.63
2023-01-21T07:45:24.614Z,8.20
2023-01-21T07:47:52.128Z,7.60
2023-01-21T07:50:19.639Z,7.87
2023-01-21T07:52:47.213Z,7.20
2023-01-21T07:55:15.120Z,7.47
2023-01-21T07:57:42.285Z,7.07
2023-01-21T08:00:09.895Z,7.57
2023-01-21T08:02:37.496Z,7.30
2023-01-21T08:05:04.950Z,7.93
2023-01-21T08:07:32.519Z,7.63
2023-01-21T08:10:00.066Z,7.97
2023-01-21T08:12:27.586Z,7.77
2023-01-21T08:14:55.151Z,7.67
2023-01-21T08:17:22.684Z,8.20
2023-01-21T08:19:50.201Z,8.13
2023-01-21T08:22:17.795Z,8.17
2023-01-21T08:24:45.322Z,8.27
2023-01-21T08:27:12.860Z,10.77
2023-01-21T08:29:40.667Z,8.77
2023-01-21T08:32:08.190Z,9.20
2023-01-21T08:34:35.717Z,8.13
2023-01-21T08:37:03.264Z,8.43
2023-01-21T08:39:30.784Z,8.23
2023-01-21T08:41:58.310Z,8.37
2023-01-21T08:44:25.871Z,8.43
2023-01-21T08:46:53.401Z,8.70
2023-01-21T08:49:20.920Z,8.40
2023-01-21T08:51:48.538Z,8.37
2023-01-21T08:54:16.032Z,8.40
2023-01-21T08:56:43.564Z,8.13
2023-01-21T08:59:11.127Z,9.00
2023-01-21T09:01:38.645Z,9.20
2023-01-21T09:04:06.168Z,9.23
2023-01-21T09:06:33.739Z,9.00
2023-01-21T09:09:01.274Z,8.47
2023-01-21T09:11:28.798Z,8.87
2023-01-21T09:13:56.353Z,8.70
2023-01-21T09:16:23.910Z,8.53
2023-01-21T09:18:51.432Z,9.17
2023-01-21T09:21:18.995Z,8.70
2023-01-21T09:23:46.547Z,9.40
2023-01-21T09:26:19.360Z,8.37
2023-01-21T09:28:46.926Z,9.40
2023-01-21T09:31:14.477Z,9.00
2023-01-21T09:33:42.000Z,8.90
2023-01-21T09:36:09.545Z,8.97
2023-01-21T09:38:37.063Z,9.00
2023-01-21T09:41:19.501Z,9.57
2023-01-21T09:43:47.039Z,8.23
2023-01-21T09:46:17.256Z,8.80
2023-01-21T09:48:44.805Z,10.57
2023-01-21T09:51:20.953Z,8.43
2023-01-21T09:53:50.899Z,8.13
2023-01-21T09:56:24.584Z,9.57
2023-01-21T09:58:55.072Z,9.00
2023-01-21T10:01:22.644Z,10.77
2023-01-21T10:03:52.587Z,10.53
2023-01-21T10:06:40.959Z,8.90
2023-01-21T10:09:11.135Z,8.17
2023-01-21T10:11:41.644Z,8.77
2023-01-21T10:14:33.233Z,8.20
2023-01-21T10:17:09.813Z,8.37
2023-01-21T10:19:40.344Z,11.20
2023-01-21T10:22:13.527Z,9.40
2023-01-21T10:24:43.796Z,10.85
2023-01-21T10:27:11.364Z,8.30
2023-01-21T10:29:38.890Z,9.30
2023-01-21T10:32:06.409Z,9.57
2023-01-21T10:34:34.043Z,9.57
2023-01-21T10:37:04.157Z,7.67
2023-01-21T10:39:52.545Z,9.80
2023-01-21T10:42:31.547Z,8.90
2023-01-21T10:45:17.152Z,8.70
2023-01-21T10:48:05.154Z,8.53
2023-01-21T10:50:38.460Z,8.53
2023-01-21T10:53:21.199Z,8.50
2023-01-21T10:56:06.905Z,12.02
2023-01-21T10:58:34.448Z,9.63
2023-01-21T11:01:01.994Z,9.03
2023-01-21T11:03:44.217Z,9.20
2023-01-21T11:06:11.742Z,9.73
2023-01-21T11:08:39.338Z,8.97
2023-01-21T11:11:07.160Z,9.60
2023-01-21T11:13:34.689Z,9.03
2023-01-21T11:16:02.273Z,11.32
2023-01-21T11:18:36.107Z,10.43
2023-01-21T11:21:12.527Z,9.63
2023-01-21T11:23:40.099Z,9.40
2023-01-21T11:26:16.085Z,9.83
2023-01-21T11:28:43.615Z,8.90
2023-01-21T11:31:14.223Z,10.43
2023-01-21T11:33:44.588Z,8.80
2023-01-21T11:36:14.639Z,8.83
2023-01-21T11:38:42.220Z,9.30
2023-01-21T11:41:12.517Z,8.50
2023-01-21T11:43:45.562Z,9.40
2023-01-21T11:46:37.075Z,9.87
2023-01-21T11:49:07.559Z,9.40
2023-01-21T11:51:35.097Z,9.23
2023-01-21T11:54:12.245Z,10.38
2023-01-21T11:56:39.769Z,9.20
2023-01-21T11:59:18.743Z,8.43
2023-01-21T12:01:51.732Z,8.40
2023-01-21T12:04:19.270Z,8.53
2023-01-21T12:06:46.835Z,8.13
2023-01-21T12:09:14.361Z,8.67
2023-01-21T12:11:41.899Z,8.10
2023-01-21T12:14:17.949Z,10.73
2023-01-21T12:16:48.167Z,8.93
2023-01-21T12:19:18.639Z,8.67
2023-01-21T12:21:48.978Z,8.40
2023-01-21T12:24:34.598Z,6.53
2023-01-21T12:27:02.155Z,6.83
2023-01-21T12:29:44.765Z,7.37
2023-01-21T12:32:22.757Z,7.33
2023-01-21T12:35:02.959Z,7.87
2023-01-21T12:37:45.639Z,7.73
2023-01-21T12:40:19.095Z,7.60
2023-01-21T12:42:49.172Z,6.83
2023-01-21T12:45:19.918Z,8.40
2023-01-21T12:47:53.159Z,7.00
2023-01-21T12:50:38.562Z,7.40
2023-01-21T12:53:14.620Z,7.73
2023-01-21T12:56:03.390Z,9.17
2023-01-21T12:58:30.909Z,8.10
2023-01-21T13:00:58.524Z,7.63
2023-01-21T13:03:43.550Z,7.20
2023-01-21T13:06:11.085Z,8.10
2023-01-21T13:08:53.503Z,6.77
2023-01-21T13:11:26.749Z,7.90
2023-01-21T13:14:09.168Z,6.68
2023-01-21T13:16:39.535Z,6.37
2023-01-21T13:19:07.028Z,6.67
2023-01-21T13:21:40.099Z,7.17
2023-01-21T13:24:22.481Z,6.87
2023-01-21T13:27:08.440Z,7.03
2023-01-21T13:29:47.877Z,6.63
2023-01-21T13:32:24.502Z,8.35
2023-01-21T13:35:28.505Z,8.90
2023-01-21T13:38:02.121Z,7.43
2023-01-21T13:40:41.848Z,6.93
2023-01-21T13:43:18.154Z,6.67
2023-01-21T13:45:57.599Z,6.60
2023-01-21T13:48:43.490Z,7.50
2023-01-21T13:51:34.761Z,7.00
2023-01-21T13:54:08.148Z,6.17
2023-01-21T13:56:44.142Z,6.50
2023-01-21T13:59:14.461Z,6.73
2023-01-21T14:01:44.818Z,6.17
2023-01-21T14:04:30.119Z,8.40
2023-01-21T14:06:57.641Z,7.40
2023-01-21T14:09:28.221Z,5.97
2023-01-21T14:12:01.096Z,6.77
2023-01-21T14:14:49.514Z,7.20
2023-01-21T14:17:19.723Z,6.93
2023-01-21T14:19:53.031Z,6.93
2023-01-21T14:22:41.110Z,7.70
2023-01-21T14:25:08.631Z,7.27
2023-01-21T14:27:38.949Z,8.13
2023-01-21T14:30:18.425Z,6.73
2023-01-21T14:32:45.842Z,9.95
2023-01-21T14:35:34.050Z,8.57
2023-01-21T14:38:13.384Z,8.83
2023-01-21T14:40:49.571Z,8.40
2023-01-21T14:43:20.061Z,10.90
2023-01-21T14:45:50.249Z,9.67
2023-01-21T14:48:35.359Z,9.40
2023-01-21T14:51:05.957Z,8.97
2023-01-21T14:53:33.429Z,8.80
2023-01-21T14:56:16.137Z,11.57
2023-01-21T14:58:48.603Z,9.87
2023-01-21T15:01:24.921Z,9.47
2023-01-21T15:03:52.360Z,9.60
2023-01-21T15:06:19.899Z,9.87
2023-01-21T15:08:47.468Z,10.07
2023-01-21T15:11:38.711Z,9.80
2023-01-21T15:14:14.831Z,9.37
2023-01-21T15:16:42.445Z,10.47
2023-01-21T15:19:12.533Z,10.10
2023-01-21T15:21:42.848Z,8.27
2023-01-21T15:24:19.024Z,10.07
2023-01-21T15:27:23.025Z,10.67
2023-01-21T15:29:59.238Z,9.97
2023-01-21T15:32:29.824Z,9.77
2023-01-21T15:35:21.079Z,9.97
2023-01-21T15:37:48.900Z,9.90
2023-01-21T15:40:28.173Z,9.20
2023-01-21T15:42:55.868Z,8.67
2023-01-21T15:45:41.028Z,10.20
2023-01-21T15:48:41.593Z,9.43
2023-01-21T15:51:20.822Z,9.87
2023-01-21T15:53:56.445Z,9.23
2023-01-21T15:56:26.721Z,15.23
2023-01-21T15:58:56.775Z,9.40
2023-01-21T16:01:33.035Z,9.17
2023-01-21T16:04:09.305Z,10.27
2023-01-21T16:06:48.802Z,9.10
2023-01-21T16:09:16.329Z,9.67
2023-01-21T16:12:17.120Z,13.37
2023-01-21T16:14:47.673Z,10.50
2023-01-21T16:17:20.878Z,10.13
2023-01-21T16:19:48.923Z,9.77
2023-01-21T16:22:16.372Z,9.07
2023-01-21T16:24:43.913Z,9.37
2023-01-21T16:27:20.410Z,8.50
2023-01-21T16:29:47.974Z,8.50
2023-01-21T16:32:18.130Z,8.53
2023-01-21T16:34:45.703Z,8.97
2023-01-21T16:37:13.231Z,8.10
2023-01-21T16:39:40.779Z,8.70
2023-01-21T16:42:08.323Z,8.63
2023-01-21T16:44:35.853Z,7.80
2023-01-21T16:47:03.432Z,8.17
2023-01-21T16:49:30.999Z,8.10
2023-01-21T16:51:58.529Z,8.23
2023-01-21T16:54:26.031Z,7.23
2023-01-21T16:56:53.624Z,7.90
2023-01-21T16:59:21.148Z,7.50
2023-01-21T17:01:48.717Z,7.90
2023-01-21T17:04:16.256Z,7.43
2023-01-21T17:06:44.075Z,7.70
2023-01-21T17:09:11.619Z,7.60
2023-01-21T17:11:39.222Z,8.80
2023-01-21T17:14:09.543Z,9.37
2023-01-21T17:16:37.094Z,7.60
2023-01-21T17:19:08.234Z,6.80
2023-01-21T17:21:35.766Z,7.60
2023-01-21T17:24:03.290Z,7.87
2023-01-21T17:26:39.597Z,7.17
2023-01-21T17:29:09.895Z,6.40
2023-01-21T17:31:37.451Z,6.40
2023-01-21T17:34:16.738Z,6.23
2023-01-21T17:36:44.256Z,6.50
2023-01-21T17:39:11.783Z,7.27
2023-01-21T17:41:42.967Z,7.30
2023-01-21T17:44:18.428Z,6.77
2023-01-21T17:46:46.037Z,6.90
2023-01-21T17:49:13.808Z,6.23
2023-01-21T17:51:41.367Z,6.90
2023-01-21T17:54:08.887Z,7.60
2023-01-21T17:56:48.514Z,6.30
2023-01-21T17:59:37.345Z,6.83
2023-01-21T18:02:04.956Z,6.50
2023-01-21T18:04:32.489Z,6.07
2023-01-21T18:07:00.020Z,6.80
2023-01-21T18:09:27.577Z,6.47
2023-01-21T18:11:55.186Z,6.47
2023-01-21T18:14:22.762Z,8.23
2023-01-21T18:16:50.320Z,6.90
2023-01-21T18:19:38.414Z,7.10
2023-01-21T18:22:06.865Z,7.03
2023-01-21T18:24:34.373Z,6.20
2023-01-21T18:27:01.915Z,7.20
2023-01-21T18:29:32.397Z,9.60
2023-01-21T18:31:59.957Z,7.47
2023-01-21T18:34:27.459Z,7.33
2023-01-21T18:36:55.043Z,6.63
2023-01-21T18:39:25.666Z,6.73
2023-01-21T18:41:51.107Z,9.68
2023-01-21T18:44:18.671Z,8.37
2023-01-21T18:46:46.293Z,8.17
2023-01-21T18:49:16.412Z,7.77
2023-01-21T18:51:43.998Z,7.80
2023-01-21T18:54:11.523Z,8.23
2023-01-21T18:56:39.070Z,8.70
2023-01-21T18:59:12.432Z,7.53
2023-01-21T19:01:39.975Z,7.43
2023-01-21T19:04:09.472Z,7.70
2023-01-21T19:06:35.057Z,7.40
2023-01-21T19:09:02.596Z,8.20
2023-01-21T19:11:30.155Z,7.67
2023-01-21T19:13:57.746Z,9.80
2023-01-21T19:16:25.354Z,10.17
2023-01-21T19:18:52.810Z,9.70
2023-01-21T19:21:20.409Z,8.37
2023-01-21T19:23:48.039Z,7.90
2023-01-21T19:26:15.517Z,9.87
2023-01-21T19:28:43.104Z,8.40
2023-01-21T19:31:10.742Z,7.33
2023-01-21T19:33:38.165Z,8.67
2023-01-21T19:36:05.746Z,7.77
2023-01-21T19:38:33.269Z,9.77
2023-01-21T19:41:01.573Z,10.20
2023-01-21T19:43:29.101Z,10.20
2023-01-21T19:45:56.626Z,7.63
2023-01-21T19:48:25.179Z,7.83
2023-01-21T19:50:52.837Z,7.67
2023-01-21T19:53:20.334Z,7.63
2023-01-21T19:55:47.866Z,7.50
2023-01-21T19:58:18.173Z,6.90
2023-01-21T20:00:45.752Z,6.93
2023-01-21T20:03:13.228Z,7.63
2023-01-21T20:05:40.809Z,7.27
2023-01-21T20:08:14.440Z,7.17
2023-01-21T20:10:41.977Z,7.07
2023-01-21T20:13:09.536Z,6.87
2023-01-21T20:15:37.067Z,7.17
2023-01-21T20:18:04.630Z,7.30
2023-01-21T20:20:32.219Z,6.63
2023-01-21T20:22:59.749Z,7.03
2023-01-21T20:25:36.422Z,7.03
2023-01-21T20:28:03.942Z,7.57
2023-01-21T20:30:31.909Z,6.93
2023-01-21T20:32:59.077Z,6.97
2023-01-21T20:35:26.633Z,7.37
2023-01-21T20:37:54.218Z,6.70
2023-01-21T20:40:22.039Z,7.37
2023-01-21T20:42:49.574Z,9.02
2023-01-21T20:45:17.429Z,7.80
2023-01-21T20:47:50.096Z,7.40
2023-01-21T20:50:14.928Z,7.30
2023-01-21T20:52:42.453Z,6.63
2023-01-21T20:55:10.024Z,7.57
2023-01-21T20:57:37.552Z,7.20
2023-01-21T21:00:05.106Z,8.20
2023-01-21T21:02:32.726Z,7.33
2023-01-21T21:05:00.228Z,9.00
2023-01-21T21:07:27.769Z,8.30
2023-01-21T21:09:55.337Z,8.03
2023-01-21T21:12:22.897Z,7.60
2023-01-21T21:14:50.424Z,7.30
2023-01-21T21:17:18.013Z,6.80
2023-01-21T21:19:45.553Z,6.90
2023-01-21T21:22:13.060Z,6.97
2023-01-21T21:24:41.268Z,6.87
2023-01-21T21:27:08.790Z,6.83
2023-01-21T21:29:36.296Z,7.17
2023-01-21T21:32:03.999Z,7.17
2023-01-21T21:34:31.417Z,6.90
2023-01-21T21:36:58.968Z,7.33
2023-01-21T21:39:26.568Z,8.73
2023-01-21T21:42:13.401Z,9.32
2023-01-21T21:44:39.549Z,7.93
2023-01-21T21:47:24.876Z,6.93
2023-01-21T21:49:52.424Z,6.83
2023-01-21T21:52:19.962Z,7.00
2023-01-21T21:54:47.498Z,7.17
2023-01-21T21:57:15.100Z,7.07
2023-01-21T21:59:42.637Z,7.23
2023-01-21T22:02:10.233Z,6.33
2023-01-21T22:04:37.748Z,7.27
2023-01-21T22:07:05.332Z,7.27
2023-01-21T22:09:32.886Z,8.00
2023-01-21T22:12:00.744Z,7.20
2023-01-21T22:14:28.250Z,7.30
2023-01-21T22:16:55.890Z,7.10
2023-01-21T22:19:23.380Z,7.70
2023-01-21T22:21:50.927Z,7.37
2023-01-21T22:24:18.453Z,7.83
2023-01-21T22:26:46.028Z,7.13
2023-01-21T22:29:13.568Z,6.93
2023-01-21T22:45:06.237Z,10.32
2023-01-21T22:47:33.767Z,8.17
2023-01-21T22:50:02.071Z,7.90
2023-01-21T22:52:29.650Z,7.53
2023-01-21T22:54:57.196Z,6.93
2023-01-21T22:57:24.828Z,7.60
2023-01-21T22:59:52.397Z,8.07
2023-01-21T23:02:19.931Z,7.70
2023-01-21T23:04:48.267Z,6.90
2023-01-21T23:07:15.830Z,7.13
2023-01-21T23:09:43.365Z,6.27
2023-01-21T23:12:10.881Z,6.63
2023-01-21T23:14:39.212Z,7.30
2023-01-21T23:17:06.746Z,7.43
2023-01-21T23:19:34.269Z,7.20
2023-01-21T23:22:02.619Z,7.70
2023-01-21T23:24:30.124Z,7.97
2023-01-21T23:26:57.654Z,7.80
2023-01-21T23:29:25.249Z,7.43
2023-01-21T23:31:52.906Z,10.40
2023-01-21T23:34:21.117Z,9.90
2023-01-21T23:36:48.679Z,8.67
2023-01-21T23:39:16.214Z,8.33
2023-01-21T23:41:43.772Z,7.73
2023-01-21T23:44:12.385Z,8.13
2023-01-21T23:46:39.933Z,9.93
2023-01-21T23:49:08.307Z,8.30
2023-01-21T23:51:35.813Z,7.87
2023-01-21T23:54:03.358Z,8.27
2023-01-21T23:56:30.894Z,8.40
2023-01-21T23:58:58.465Z,10.63
